Time;durP1;ratioP1;P1;durP2;ratioP2;P2;SDS_P1;SDS_P2;PMS_P1;PMS_P2;Temp;Humidity;BMP_temperature;BMP_pressure;BME280_temperature;BME280_humidity;BME280_pressure;Samples;Min_cycle;Max_cycle;Signal;HPM_P1;HPM_P2
2022/07/01 00:01:34;;;;;;;2.87;1.13;;;21.30;95.70;;;;;;7365140;19;20404;-80
2022/07/01 00:04:05;;;;;;;2.23;1.20;;;21.00;95.00;;;;;;7371287;19;20467;-79
2022/07/01 00:06:37;;;;;;;2.83;1.13;;;20.90;96.40;;;;;;7386398;19;20432;-78
2022/07/01 00:09:08;;;;;;;2.30;1.30;;;20.90;96.40;;;;;;7402573;19;20460;-77
2022/07/01 00:11:38;;;;;;;1.63;0.83;;;20.90;95.30;;;;;;7392475;19;20412;-79
2022/07/01 00:14:11;;;;;;;3.80;0.90;;;20.80;95.40;;;;;;7397403;19;20411;-78
2022/07/01 00:16:44;;;;;;;2.13;0.90;;;20.80;96.10;;;;;;7387621;19;20412;-79
2022/07/01 00:19:17;;;;;;;0.70;0.60;;;20.80;93.80;;;;;;7393451;19;20469;-77
2022/07/01 00:21:48;;;;;;;1.47;0.60;;;20.80;95.10;;;;;;7393075;19;20421;-79
2022/07/01 00:24:20;;;;;;;2.40;0.80;;;20.80;94.60;;;;;;7401564;19;20403;-78
2022/07/01 00:26:50;;;;;;;3.33;0.70;;;20.70;93.40;;;;;;7401741;19;20746;-78
2022/07/01 00:29:23;;;;;;;1.00;0.70;;;20.50;93.40;;;;;;7411222;19;20424;-76
2022/07/01 00:31:53;;;;;;;2.07;0.70;;;20.40;91.70;;;;;;7407725;19;20436;-77
2022/07/01 00:34:26;;;;;;;1.00;0.60;;;20.20;91.90;;;;;;7404355;19;20417;-79
2022/07/01 00:36:56;;;;;;;0.60;0.60;;;20.20;91.20;;;;;;7401048;19;20436;-79
2022/07/01 00:39:26;;;;;;;1.33;0.67;;;20.10;93.00;;;;;;7406485;19;20415;-78
2022/07/01 00:42:00;;;;;;;2.73;0.60;;;20.00;93.20;;;;;;7409065;19;20404;-79
2022/07/01 00:44:33;;;;;;;1.57;0.60;;;20.00;92.10;;;;;;7410741;19;20401;-78
2022/07/01 00:47:06;;;;;;;0.63;0.50;;;19.90;92.60;;;;;;7410584;19;20437;-79
2022/07/01 00:49:38;;;;;;;0.93;0.60;;;20.00;94.30;;;;;;7405723;19;20524;-78
2022/07/01 00:52:12;;;;;;;1.67;0.50;;;20.00;95.60;;;;;;7401601;19;20415;-78
2022/07/01 00:54:43;;;;;;;1.37;0.80;;;20.10;95.50;;;;;;7403415;19;20415;-78
2022/07/01 00:57:15;;;;;;;1.37;0.70;;;20.10;94.20;;;;;;7392969;19;20428;-78
2022/07/01 00:59:48;;;;;;;1.50;0.70;;;20.10;95.10;;;;;;7406227;19;20463;-80
2022/07/01 01:02:21;;;;;;;2.27;0.60;;;19.70;92.70;;;;;;7405613;19;20499;-78
2022/07/01 01:04:52;;;;;;;1.57;0.80;;;19.70;95.60;;;;;;7401545;19;20411;-79
2022/07/01 01:07:25;;;;;;;1.70;0.50;;;19.90;96.10;;;;;;7400933;19;20920;-78
2022/07/01 01:09:55;;;;;;;1.27;0.67;;;19.90;96.10;;;;;;7398236;19;20397;-79
2022/07/01 01:12:29;;;;;;;1.10;0.70;;;19.90;95.50;;;;;;7405672;19;20400;-79
2022/07/01 01:15:02;;;;;;;0.60;0.40;;;20.00;95.40;;;;;;7407730;19;20396;-79
2022/07/01 01:17:38;;;;;;;0.93;0.40;;;20.10;93.80;;;;;;7406028;19;20416;-79
2022/07/01 01:20:10;;;;;;;0.50;0.40;;;20.10;94.50;;;;;;7397700;19;20416;-78
2022/07/01 01:22:44;;;;;;;1.17;0.60;;;20.00;93.30;;;;;;7412515;19;20396;-79
2022/07/01 01:25:14;;;;;;;0.70;0.50;;;19.90;93.90;;;;;;7407719;19;20422;-79
2022/07/01 01:27:45;;;;;;;1.07;0.70;;;19.90;93.70;;;;;;7408453;19;20407;-79
2022/07/01 01:30:18;;;;;;;1.57;0.50;;;19.80;93.40;;;;;;7401153;19;21946;-79
2022/07/01 01:32:49;;;;;;;2.47;0.90;;;19.80;93.30;;;;;;7394229;19;20765;-79
2022/07/01 01:35:22;;;;;;;2.50;0.80;;;19.70;93.10;;;;;;7393300;19;20408;-80
2022/07/01 01:37:58;;;;;;;0.80;0.60;;;19.60;93.90;;;;;;7394904;19;20975;-80
2022/07/01 01:40:31;;;;;;;0.80;0.40;;;19.60;95.20;;;;;;7394367;19;20410;-79
2022/07/01 01:43:02;;;;;;;1.67;0.90;;;19.60;95.30;;;;;;7396085;19;20764;-79
2022/07/01 01:45:33;;;;;;;2.20;0.60;;;19.60;94.90;;;;;;7392157;19;20429;-79
2022/07/01 01:48:06;;;;;;;1.27;0.40;;;19.50;94.20;;;;;;7393080;19;20444;-79
2022/07/01 01:50:36;;;;;;;2.30;0.60;;;19.50;93.20;;;;;;7373281;19;20820;-79
2022/07/01 01:53:10;;;;;;;0.73;0.73;;;19.40;93.70;;;;;;7370640;19;20446;-79
2022/07/01 01:55:39;;;;;;;0.70;0.50;;;19.40;93.30;;;;;;7361830;19;20437;-81
2022/07/01 01:58:09;;;;;;;1.30;0.63;;;19.40;94.00;;;;;;7355160;19;20423;-79
2022/07/01 02:00:38;;;;;;;1.73;0.73;;;19.40;93.40;;;;;;7371689;19;20410;-79
2022/07/01 02:03:08;;;;;;;1.10;0.70;;;19.20;93.10;;;;;;7371934;19;20412;-78
2022/07/01 02:05:40;;;;;;;0.67;0.50;;;19.00;95.20;;;;;;7372402;19;20780;-79
2022/07/01 02:08:12;;;;;;;1.10;0.70;;;19.00;94.70;;;;;;7371123;19;20407;-78
2022/07/01 02:10:41;;;;;;;1.27;0.60;;;19.00;95.30;;;;;;7366651;19;20497;-79
2022/07/01 02:13:11;;;;;;;2.20;1.00;;;19.00;93.90;;;;;;7373011;19;20424;-79
2022/07/01 02:15:40;;;;;;;1.90;0.50;;;19.10;95.40;;;;;;7370041;19;20397;-79
2022/07/01 02:18:10;;;;;;;2.13;0.70;;;19.20;95.20;;;;;;7372652;19;20407;-81
2022/07/01 02:20:40;;;;;;;1.43;0.67;;;19.30;95.00;;;;;;7372366;19;20405;-78
2022/07/01 02:23:13;;;;;;;1.00;0.67;;;19.30;95.20;;;;;;7372107;19;20931;-78
2022/07/01 02:25:42;;;;;;;1.23;0.80;;;19.40;95.10;;;;;;7371822;19;20407;-79
2022/07/01 02:28:12;;;;;;;0.67;0.53;;;19.30;94.70;;;;;;7366817;19;20827;-79
2022/07/01 02:30:42;;;;;;;0.80;0.60;;;19.10;95.90;;;;;;7361976;19;20807;-79
2022/07/01 02:33:12;;;;;;;2.63;1.00;;;19.10;96.30;;;;;;7367751;19;20416;-80
2022/07/01 02:35:43;;;;;;;0.87;0.60;;;19.00;96.40;;;;;;7369429;19;20821;-79
2022/07/01 02:38:16;;;;;;;1.10;0.50;;;19.00;96.70;;;;;;7373398;19;20411;-79
2022/07/01 02:40:45;;;;;;;1.40;0.70;;;19.00;95.90;;;;;;7366753;19;20416;-78
2022/07/01 02:43:18;;;;;;;1.60;0.87;;;19.00;96.90;;;;;;7372971;19;20437;-78
2022/07/01 02:45:48;;;;;;;1.43;0.50;;;19.10;96.60;;;;;;7366091;19;20419;-78
2022/07/01 02:48:17;;;;;;;1.50;0.70;;;19.20;96.20;;;;;;7370825;19;20443;-79
2022/07/01 02:50:46;;;;;;;1.97;0.83;;;19.30;95.50;;;;;;7367458;19;20944;-79
2022/07/01 02:53:19;;;;;;;1.00;0.60;;;19.20;94.30;;;;;;7370811;19;20452;-80
2022/07/01 02:55:48;;;;;;;0.90;0.60;;;19.10;95.30;;;;;;7366767;19;20400;-79
2022/07/01 02:58:18;;;;;;;1.07;0.70;;;19.10;95.60;;;;;;7353359;19;20512;-79
2022/07/01 03:00:48;;;;;;;1.70;0.90;;;19.00;96.40;;;;;;7373716;19;20409;-79
2022/07/01 03:03:18;;;;;;;1.17;0.60;;;18.90;96.00;;;;;;7367939;19;20404;-79
2022/07/01 03:05:50;;;;;;;1.73;1.43;;;19.00;96.20;;;;;;7366823;19;20834;-79
2022/07/01 03:08:22;;;;;;;1.67;1.13;;;19.10;95.70;;;;;;7365914;19;21112;-79
2022/07/01 03:10:51;;;;;;;1.50;1.10;;;19.10;95.00;;;;;;7372021;19;21071;-79
2022/07/01 03:13:21;;;;;;;1.70;1.17;;;19.10;95.00;;;;;;7364638;19;20421;-79
2022/07/01 03:15:53;;;;;;;1.00;0.90;;;19.10;95.00;;;;;;7367574;19;20455;-79
2022/07/01 03:18:22;;;;;;;1.50;1.00;;;18.80;94.80;;;;;;7365644;19;20419;-79
2022/07/01 03:20:52;;;;;;;1.10;0.80;;;18.80;95.00;;;;;;7371299;19;20505;-79
2022/07/01 03:23:24;;;;;;;1.60;1.10;;;18.60;95.30;;;;;;7366416;19;20766;-79
2022/07/01 03:25:53;;;;;;;1.37;0.70;;;18.60;95.90;;;;;;7366692;19;20948;-79
2022/07/01 03:28:25;;;;;;;1.80;1.27;;;18.60;95.10;;;;;;7368812;19;20564;-79
2022/07/01 03:30:54;;;;;;;3.63;1.20;;;18.50;95.90;;;;;;7368837;19;20475;-79
2022/07/01 03:33:24;;;;;;;3.37;0.80;;;18.50;96.10;;;;;;7361276;19;21140;-79
2022/07/01 03:35:53;;;;;;;1.70;0.90;;;18.50;95.30;;;;;;7372402;19;20408;-78
2022/07/01 03:38:25;;;;;;;1.20;0.80;;;18.50;96.00;;;;;;7362347;19;20427;-79
2022/07/01 03:40:57;;;;;;;1.60;0.80;;;18.40;94.90;;;;;;7366853;19;20407;-79
2022/07/01 03:43:26;;;;;;;0.73;0.50;;;18.40;96.60;;;;;;7365869;19;20975;-79
2022/07/01 03:45:56;;;;;;;1.40;0.90;;;18.50;96.10;;;;;;7367719;19;20413;-76
2022/07/01 03:48:26;;;;;;;0.80;0.63;;;18.50;96.60;;;;;;7399584;19;21196;-78
2022/07/01 03:50:55;;;;;;;0.80;0.50;;;18.60;96.50;;;;;;7388861;19;20444;-77
2022/07/01 03:56:09;;;;;;;1.47;0.70;;;18.80;95.80;;;;;;7362719;19;20420;-78
2022/07/01 03:58:38;;;;;;;1.97;1.10;;;18.70;94.50;;;;;;7354397;19;20444;-77
2022/07/01 04:01:08;;;;;;;1.07;0.70;;;18.70;94.40;;;;;;7366122;19;20411;-77
2022/07/01 04:03:40;;;;;;;0.90;0.60;;;18.50;95.50;;;;;;7397630;19;20440;-77
2022/07/01 04:06:09;;;;;;;3.00;0.80;;;18.50;96.90;;;;;;7397163;19;20415;-78
2022/07/01 04:08:42;;;;;;;1.83;1.00;;;18.50;98.10;;;;;;7403954;19;20802;-78
2022/07/01 04:11:11;;;;;;;1.40;0.80;;;18.50;99.70;;;;;;7399849;19;20415;-78
2022/07/01 04:13:44;;;;;;;1.70;0.83;;;18.60;99.90;;;;;;7397617;19;20429;-78
2022/07/01 04:16:14;;;;;;;1.40;0.80;;;18.60;99.90;;;;;;7392702;19;20404;-77
2022/07/01 04:18:44;;;;;;;1.27;0.70;;;18.70;99.90;;;;;;7395138;19;20416;-78
2022/07/01 04:24:00;;;;;;;1.47;0.73;;;18.60;99.20;;;;;;7375277;19;20412;-78
2022/07/01 04:26:32;;;;;;;1.30;0.90;;;18.60;99.50;;;;;;7372280;19;20400;-79
2022/07/01 04:29:02;;;;;;;1.77;0.90;;;18.50;99.90;;;;;;7369007;19;20404;-78
2022/07/01 04:31:31;;;;;;;1.03;0.80;;;18.40;99.90;;;;;;7365799;19;20416;-78
2022/07/01 04:34:01;;;;;;;1.30;1.10;;;18.40;98.90;;;;;;7370594;19;20459;-79
2022/07/01 04:36:31;;;;;;;1.90;1.13;;;18.40;98.70;;;;;;7372181;19;20401;-79
2022/07/01 04:39:03;;;;;;;4.40;2.43;;;18.30;97.60;;;;;;7370993;19;20413;-79
2022/07/01 04:44:15;;;;;;;3.57;2.50;;;18.00;99.90;;;;;;7368740;19;20985;-78
2022/07/01 04:46:44;;;;;;;10.27;6.20;;;18.10;99.10;;;;;;7370973;19;21042;-78
2022/07/01 04:49:14;;;;;;;13.00;9.20;;;18.30;99.90;;;;;;7370993;19;20740;-78
2022/07/01 04:51:44;;;;;;;2.33;1.80;;;18.40;99.90;;;;;;7370255;19;20404;-78
2022/07/01 04:54:16;;;;;;;6.30;4.60;;;18.40;98.50;;;;;;7365370;19;20411;-78
2022/07/01 04:56:45;;;;;;;1.07;0.70;;;18.40;99.70;;;;;;7371966;19;20439;-79
2022/07/01 04:59:15;;;;;;;19.17;9.60;;;18.40;99.60;;;;;;7367534;19;20416;-79
2022/07/01 05:01:48;;;;;;;2.63;1.10;;;18.50;99.90;;;;;;7367565;19;20996;-78
2022/07/01 05:04:18;;;;;;;6.47;3.30;;;18.50;99.10;;;;;;7376418;19;20420;-78
2022/07/01 05:06:48;;;;;;;6.40;3.97;;;18.40;99.50;;;;;;7375407;19;20408;-78
2022/07/01 05:09:20;;;;;;;5.17;4.10;;;18.40;99.90;;;;;;7373677;19;20408;-78
2022/07/01 05:11:50;;;;;;;8.80;5.67;;;18.50;99.90;;;;;;7345051;19;20470;-78
2022/07/01 05:14:19;;;;;;;7.73;4.27;;;18.50;99.90;;;;;;7374327;19;20408;-78
2022/07/01 05:16:49;;;;;;;4.67;2.33;;;18.50;99.90;;;;;;7374656;19;20972;-78
2022/07/01 05:22:02;;;;;;;5.47;3.00;;;18.50;99.90;;;;;;7374611;19;21156;-78
2022/07/01 05:24:35;;;;;;;4.80;2.27;;;18.40;99.90;;;;;;7369513;19;20935;-79
2022/07/01 05:27:05;;;;;;;7.83;5.60;;;18.40;99.90;;;;;;7375105;19;20406;-79
2022/07/01 05:29:35;;;;;;;2.70;1.87;;;18.60;99.90;;;;;;7378353;19;20388;-79
2022/07/01 05:32:10;;;;;;;2.80;1.60;;;18.60;99.90;;;;;;7372253;19;20445;-79
2022/07/01 05:34:40;;;;;;;3.17;2.17;;;18.60;99.90;;;;;;7370620;19;20404;-79
2022/07/01 05:37:10;;;;;;;2.07;1.00;;;18.60;99.90;;;;;;7367855;19;20963;-79
2022/07/01 05:39:42;;;;;;;2.50;1.03;;;18.50;99.90;;;;;;7371285;19;20433;-79
2022/07/01 05:42:11;;;;;;;0.83;0.80;;;18.60;99.90;;;;;;7365236;19;21126;-79
2022/07/01 05:44:41;;;;;;;1.17;1.03;;;18.60;99.90;;;;;;7370405;19;20424;-78
2022/07/01 05:47:11;;;;;;;1.40;1.00;;;18.80;99.90;;;;;;7366509;19;20441;-78
2022/07/01 05:49:40;;;;;;;2.63;1.50;;;18.70;99.30;;;;;;7373663;19;20417;-78
2022/07/01 05:52:10;;;;;;;1.93;1.27;;;18.70;99.90;;;;;;7371320;19;20445;-78
2022/07/01 05:54:42;;;;;;;2.80;1.23;;;18.60;99.90;;;;;;7367458;19;20939;-79
2022/07/01 05:57:12;;;;;;;1.60;1.40;;;18.60;99.90;;;;;;7369062;19;20416;-79
2022/07/01 05:59:41;;;;;;;2.63;1.57;;;18.80;99.90;;;;;;7364071;19;20404;-79
2022/07/01 06:02:10;;;;;;;2.63;1.37;;;18.90;99.90;;;;;;7369457;19;20423;-79
2022/07/01 06:04:43;;;;;;;2.43;1.73;;;18.60;99.90;;;;;;7368410;19;20438;-78
2022/07/01 06:07:15;;;;;;;1.80;1.40;;;18.40;99.90;;;;;;7361822;19;20403;-77
2022/07/01 06:09:47;;;;;;;5.83;2.50;;;18.40;99.90;;;;;;7369496;19;21054;-78
2022/07/01 06:12:17;;;;;;;6.50;1.60;;;18.50;99.90;;;;;;7360204;19;20493;-79
2022/07/01 06:14:46;;;;;;;2.27;1.63;;;18.70;99.90;;;;;;7365464;19;20407;-79
2022/07/01 06:17:16;;;;;;;4.43;2.00;;;18.50;99.90;;;;;;7359386;19;20480;-78
2022/07/01 06:19:46;;;;;;;2.37;1.57;;;18.40;99.90;;;;;;7367614;19;20923;-78
2022/07/01 06:22:20;;;;;;;3.50;1.87;;;18.40;99.90;;;;;;7377449;19;20412;-79
2022/07/01 06:24:52;;;;;;;3.43;3.13;;;18.40;99.90;;;;;;7375635;19;20348;-78
2022/07/01 06:27:22;;;;;;;3.23;1.57;;;18.30;99.90;;;;;;7377471;19;20416;-79
2022/07/01 06:29:52;;;;;;;1.90;1.73;;;18.20;99.90;;;;;;7375711;19;20432;-78
2022/07/01 06:32:22;;;;;;;1.70;1.60;;;18.00;99.90;;;;;;7378058;19;20412;-79
2022/07/01 06:34:52;;;;;;;2.10;1.30;;;18.10;99.90;;;;;;7370030;19;20405;-79
2022/07/01 06:37:22;;;;;;;2.30;1.57;;;18.20;99.90;;;;;;7368317;19;20948;-79
2022/07/01 06:39:56;;;;;;;1.80;1.53;;;18.30;99.90;;;;;;7375043;19;20458;-79
2022/07/01 06:42:26;;;;;;;2.40;2.13;;;18.40;99.90;;;;;;7374489;19;20397;-79
2022/07/01 06:44:55;;;;;;;2.23;1.90;;;18.30;99.90;;;;;;7378061;19;21035;-79
2022/07/01 06:47:25;;;;;;;2.20;1.73;;;18.40;99.90;;;;;;7376413;19;20429;-79
2022/07/01 06:49:54;;;;;;;4.00;1.90;;;18.40;99.90;;;;;;7374835;19;21007;-78
2022/07/01 06:52:27;;;;;;;1.63;1.40;;;18.30;99.90;;;;;;7375833;19;20379;-79
2022/07/01 06:54:59;;;;;;;3.03;1.53;;;18.40;99.90;;;;;;7374020;19;20450;-79
2022/07/01 06:57:29;;;;;;;1.37;1.17;;;18.40;99.90;;;;;;7375033;19;20420;-79
2022/07/01 07:00:01;;;;;;;1.80;1.53;;;18.40;99.90;;;;;;7362182;19;20401;-79
2022/07/01 07:02:31;;;;;;;2.10;1.43;;;18.50;99.90;;;;;;7368412;19;20413;-79
2022/07/01 07:05:00;;;;;;;2.20;1.63;;;18.60;99.90;;;;;;7362445;19;21362;-79
2022/07/01 07:07:30;;;;;;;4.77;2.27;;;18.60;99.90;;;;;;7363627;19;21933;-77
2022/07/01 07:10:02;;;;;;;2.00;1.13;;;18.50;99.90;;;;;;7364494;19;20413;-77
2022/07/01 07:12:32;;;;;;;2.73;1.70;;;18.50;99.90;;;;;;7364148;19;20419;-77
2022/07/01 07:15:01;;;;;;;1.90;1.30;;;18.40;99.90;;;;;;7369480;19;20932;-77
2022/07/01 07:17:31;;;;;;;2.10;0.90;;;18.60;99.90;;;;;;7362734;19;20425;-76
2022/07/01 07:20:00;;;;;;;1.67;1.20;;;18.50;99.90;;;;;;7356806;19;20463;-76
2022/07/01 07:22:30;;;;;;;1.20;1.10;;;18.40;99.90;;;;;;7362575;19;20991;-76
2022/07/01 07:25:05;;;;;;;1.93;1.20;;;18.40;99.90;;;;;;7364718;19;20424;-81
2022/07/01 07:27:34;;;;;;;2.53;1.27;;;18.30;99.90;;;;;;7371379;19;20404;-78
2022/07/01 07:30:08;;;;;;;1.63;1.23;;;18.30;99.90;;;;;;7382874;19;20403;-76
2022/07/01 07:32:40;;;;;;;4.17;1.93;;;18.30;99.90;;;;;;7372357;19;20419;-76
2022/07/01 07:35:11;;;;;;;2.50;1.67;;;18.30;99.90;;;;;;7367228;19;20497;-77
2022/07/01 07:37:40;;;;;;;2.20;1.20;;;18.30;99.90;;;;;;7372690;19;20817;-77
2022/07/01 07:40:18;;;;;;;1.13;1.03;;;18.30;99.90;;;;;;7372097;19;20411;-76
2022/07/01 07:42:49;;;;;;;1.50;1.33;;;18.30;99.90;;;;;;7368261;19;20404;-77
2022/07/01 07:45:23;;;;;;;3.23;1.57;;;18.20;99.90;;;;;;7371177;19;20404;-76
2022/07/01 07:47:54;;;;;;;3.90;1.90;;;18.30;99.90;;;;;;7372072;19;20405;-76
2022/07/01 07:50:25;;;;;;;1.50;1.27;;;18.40;99.90;;;;;;7370608;19;20404;-76
2022/07/01 07:52:54;;;;;;;4.43;1.40;;;18.50;99.90;;;;;;7373508;19;20419;-76
2022/07/01 07:55:28;;;;;;;2.03;1.30;;;18.70;99.90;;;;;;7375827;19;20411;-77
2022/07/01 07:58:00;;;;;;;2.00;1.53;;;18.70;99.90;;;;;;7364096;19;20427;-76
2022/07/01 08:00:30;;;;;;;1.30;1.20;;;18.60;99.90;;;;;;7372433;19;20408;-75
2022/07/01 08:03:00;;;;;;;2.37;1.10;;;18.60;99.90;;;;;;7384220;19;20453;-74
2022/07/01 08:05:30;;;;;;;1.80;1.43;;;18.60;99.90;;;;;;7386439;19;20403;-75
2022/07/01 08:08:03;;;;;;;2.27;1.50;;;18.60;99.90;;;;;;7383540;19;20950;-72
2022/07/01 08:10:36;;;;;;;2.17;1.80;;;18.70;99.90;;;;;;7375279;19;20419;-71
2022/07/01 08:13:06;;;;;;;2.23;1.90;;;18.70;98.20;;;;;;7379068;19;20412;-72
2022/07/01 08:15:36;;;;;;;2.40;1.17;;;18.60;99.10;;;;;;7373672;19;20396;-73
2022/07/01 08:18:06;;;;;;;3.63;1.70;;;18.60;99.90;;;;;;7375185;19;20397;-72
2022/07/01 08:20:36;;;;;;;2.20;1.40;;;18.50;99.90;;;;;;7373128;19;20416;-73
2022/07/01 08:23:12;;;;;;;3.07;1.70;;;18.70;99.90;;;;;;7374567;19;20399;-73
2022/07/01 08:25:45;;;;;;;1.30;1.20;;;18.50;99.90;;;;;;7374292;19;20424;-73
2022/07/01 08:28:16;;;;;;;1.90;1.37;;;18.20;99.90;;;;;;7374744;19;21159;-72
2022/07/01 08:30:47;;;;;;;2.37;1.60;;;18.30;99.90;;;;;;7373655;19;20396;-71
2022/07/01 08:33:17;;;;;;;1.23;1.13;;;18.40;99.90;;;;;;7373975;19;20419;-71
2022/07/01 08:35:48;;;;;;;1.20;1.00;;;18.50;99.90;;;;;;7374863;19;20743;-70
2022/07/01 08:38:18;;;;;;;3.47;1.50;;;18.80;99.90;;;;;;7375634;19;20415;-72
2022/07/01 08:40:51;;;;;;;1.20;1.07;;;19.00;99.90;;;;;;7372895;19;20803;-72
2022/07/01 08:43:21;;;;;;;2.70;1.13;;;19.20;99.90;;;;;;7373761;19;20400;-72
2022/07/01 08:45:54;;;;;;;1.93;1.23;;;19.30;99.00;;;;;;7373901;19;20814;-71
2022/07/01 08:48:27;;;;;;;2.03;1.23;;;19.20;97.50;;;;;;7373557;19;20408;-72
2022/07/01 08:50:57;;;;;;;4.57;1.20;;;19.20;99.40;;;;;;7373336;19;20396;-71
2022/07/01 08:53:28;;;;;;;1.83;1.10;;;19.20;99.00;;;;;;7369347;19;20408;-71
2022/07/01 08:58:45;;;;;;;2.10;1.00;;;19.20;98.50;;;;;;7372716;19;21419;-71
2022/07/01 09:01:16;;;;;;;1.67;1.47;;;18.90;98.90;;;;;;7370477;19;20408;-73
2022/07/01 09:03:47;;;;;;;1.23;1.00;;;18.90;99.90;;;;;;7371657;19;21623;-73
2022/07/01 09:06:18;;;;;;;1.50;0.97;;;18.90;99.90;;;;;;7373667;19;20436;-71
2022/07/01 09:08:49;;;;;;;1.20;0.97;;;18.80;99.90;;;;;;7374627;19;20413;-73
2022/07/01 09:11:23;;;;;;;3.90;1.40;;;18.50;99.90;;;;;;7369994;19;20798;-72
2022/07/01 09:14:09;;;;;;;3.90;1.30;;;18.70;99.90;;;;;;7371221;19;20412;-73
2022/07/01 09:16:44;;;;;;;2.17;1.27;;;18.80;99.90;;;;;;7371928;19;21712;-73
2022/07/01 09:19:18;;;;;;;4.60;1.60;;;18.90;99.90;;;;;;7369052;19;20416;-73
2022/07/01 09:21:52;;;;;;;2.97;1.60;;;19.00;99.90;;;;;;7368671;19;20411;-74
2022/07/01 09:24:30;;;;;;;2.00;1.70;;;19.00;99.90;;;;;;7369980;19;20449;-74
2022/07/01 09:27:06;;;;;;;3.87;1.30;;;18.60;99.90;;;;;;7367279;19;20419;-73
2022/07/01 09:29:37;;;;;;;1.77;1.50;;;18.60;99.90;;;;;;7364412;19;20422;-74
2022/07/01 09:32:09;;;;;;;1.60;1.50;;;18.80;99.90;;;;;;7366815;19;20371;-74
2022/07/01 09:34:42;;;;;;;1.70;1.20;;;19.00;99.90;;;;;;7367079;19;20412;-74
2022/07/01 09:37:14;;;;;;;2.07;1.27;;;18.90;99.90;;;;;;7367698;19;20379;-74
2022/07/01 09:39:49;;;;;;;1.87;1.50;;;18.70;99.90;;;;;;7369655;19;20491;-74
2022/07/01 09:42:25;;;;;;;3.50;1.33;;;18.20;99.90;;;;;;7364959;19;20774;-74
2022/07/01 09:44:56;;;;;;;2.20;1.50;;;18.10;99.90;;;;;;7375468;19;20825;-73
2022/07/01 09:47:26;;;;;;;1.80;1.70;;;17.90;99.90;;;;;;7367492;19;20396;-73
2022/07/01 09:49:57;;;;;;;4.07;1.40;;;17.80;99.90;;;;;;7372066;19;20442;-72
2022/07/01 09:52:27;;;;;;;3.20;1.97;;;17.90;99.90;;;;;;7376720;19;20412;-79
2022/07/01 09:54:57;;;;;;;2.30;1.70;;;18.10;99.90;;;;;;7366448;19;20532;-80
2022/07/01 09:57:31;;;;;;;3.23;2.13;;;18.50;99.90;;;;;;7353404;19;21114;-80
2022/07/01 10:00:01;;;;;;;2.90;2.10;;;18.70;99.90;;;;;;7368065;19;20443;-80
2022/07/01 10:02:37;;;;;;;2.30;1.70;;;18.70;99.90;;;;;;7365780;19;20468;-78
2022/07/01 10:05:12;;;;;;;5.80;2.47;;;18.60;99.90;;;;;;7371997;19;20415;-78
2022/07/01 10:07:50;;;;;;;2.30;1.90;;;18.70;99.90;;;;;;7371970;19;20408;-80
2022/07/01 10:10:34;;;;;;;2.30;1.50;;;18.90;99.90;;;;;;7373449;19;20516;-81
2022/07/01 10:13:08;;;;;;;8.03;2.07;;;19.00;99.90;;;;;;7371596;19;20405;-80
2022/07/01 10:15:39;;;;;;;1.90;1.40;;;19.20;99.90;;;;;;7373916;19;20420;-80
2022/07/01 10:18:08;;;;;;;1.60;1.40;;;19.20;99.90;;;;;;7374765;19;20404;-81
2022/07/01 10:20:40;;;;;;;1.57;1.30;;;19.30;99.90;;;;;;7373980;19;20412;-80
2022/07/01 10:23:10;;;;;;;4.93;1.83;;;19.40;99.90;;;;;;7376255;19;20424;-80
2022/07/01 10:25:45;;;;;;;4.83;1.87;;;19.50;99.90;;;;;;7379045;19;20796;-79
2022/07/01 10:28:27;;;;;;;5.23;2.20;;;19.60;99.90;;;;;;7378734;19;20504;-81
2022/07/01 10:31:00;;;;;;;3.57;1.40;;;19.70;99.50;;;;;;7374627;19;20400;-80
2022/07/01 10:33:36;;;;;;;1.90;1.13;;;19.70;99.60;;;;;;7374542;19;20416;-80
2022/07/01 10:36:08;;;;;;;2.50;1.33;;;19.60;99.00;;;;;;7376521;19;20498;-80
2022/07/01 10:39:13;;;;;;;2.10;1.50;;;19.60;97.90;;;;;;7371983;19;20384;-80
2022/07/01 10:41:56;;;;;;;2.10;1.30;;;19.40;99.50;;;;;;7366000;19;20397;-80
2022/07/01 10:44:34;;;;;;;2.97;2.67;;;19.40;99.90;;;;;;7377193;19;20415;-80
2022/07/01 10:47:09;;;;;;;1.43;1.00;;;19.90;99.00;;;;;;7391232;19;20428;-80
2022/07/01 10:49:56;;;;;;;1.50;1.40;;;20.20;97.40;;;;;;7377901;19;20434;-80
2022/07/01 10:52:26;;;;;;;1.67;1.47;;;20.30;96.30;;;;;;7371185;19;20404;-81
2022/07/01 10:55:00;;;;;;;2.00;1.10;;;20.60;95.40;;;;;;7369621;19;20396;-81
2022/07/01 10:57:35;;;;;;;2.07;1.07;;;20.70;93.70;;;;;;7366634;19;20576;-81
2022/07/01 11:00:36;;;;;;;2.20;1.20;;;20.50;93.90;;;;;;7371411;19;20400;-81
2022/07/01 11:03:27;;;;;;;3.60;1.67;;;20.70;93.40;;;;;;7372432;19;20936;-81
2022/07/01 11:05:58;;;;;;;2.50;1.80;;;20.50;93.20;;;;;;7376632;19;20412;-81
2022/07/01 11:08:27;;;;;;;1.17;1.07;;;20.50;92.70;;;;;;7373549;19;20447;-82
2022/07/01 11:11:01;;;;;;;1.80;1.07;;;20.50;93.00;;;;;;7375351;19;20407;-81
2022/07/01 11:13:32;;;;;;;2.77;1.30;;;20.40;92.90;;;;;;7374908;19;20457;-81
2022/07/01 11:16:04;;;;;;;1.77;1.23;;;20.40;92.00;;;;;;7373435;19;20850;-81
2022/07/01 11:18:34;;;;;;;2.97;2.00;;;20.50;91.90;;;;;;7372245;19;20442;-81
2022/07/01 11:21:10;;;;;;;2.13;1.10;;;20.60;92.70;;;;;;7373771;19;20400;-81
2022/07/01 11:23:42;;;;;;;1.60;1.17;;;20.80;91.90;;;;;;7370158;19;20535;-81
2022/07/01 11:26:24;;;;;;;3.97;1.30;;;20.70;92.20;;;;;;7370750;19;20419;-81
2022/07/01 11:28:54;;;;;;;1.50;1.03;;;20.70;89.70;;;;;;7373745;19;20788;-81
2022/07/01 11:31:34;;;;;;;1.80;1.40;;;20.80;90.60;;;;;;7372153;19;20404;-81
2022/07/01 11:34:04;;;;;;;3.23;1.13;;;20.70;91.20;;;;;;7379660;19;21042;-82
2022/07/01 11:39:27;;;;;;;2.00;1.00;;;20.50;88.70;;;;;;7406969;19;20396;-82
2022/07/01 11:41:58;;;;;;;1.77;1.30;;;20.40;90.30;;;;;;7406252;19;20384;-80
2022/07/01 11:44:36;;;;;;;1.73;1.53;;;20.50;91.60;;;;;;7412516;19;20409;-82
2022/07/01 11:47:10;;;;;;;2.00;1.27;;;20.70;91.40;;;;;;7413020;19;20444;-82
2022/07/01 11:49:46;;;;;;;1.03;0.87;;;20.80;90.20;;;;;;7414719;19;20401;-82
2022/07/01 11:52:19;;;;;;;1.67;1.10;;;21.10;85.00;;;;;;7416406;19;20423;-82
2022/07/01 11:54:51;;;;;;;1.60;1.23;;;22.30;78.60;;;;;;7415574;19;20504;-81
2022/07/01 11:57:26;;;;;;;2.07;1.43;;;22.90;72.20;;;;;;7401372;19;20424;-83
2022/07/01 11:59:59;;;;;;;1.57;1.33;;;23.30;71.10;;;;;;7405325;19;20408;-81
2022/07/01 12:02:31;;;;;;;1.60;1.50;;;23.80;67.80;;;;;;7405343;19;20420;-84
2022/07/01 12:05:03;;;;;;;1.87;1.10;;;24.00;68.00;;;;;;7413050;19;20412;-83
2022/07/01 12:07:33;;;;;;;1.27;0.90;;;24.10;64.70;;;;;;7416990;19;21143;-82
2022/07/01 12:10:06;;;;;;;1.27;0.93;;;23.90;65.70;;;;;;7416734;19;20408;-83
2022/07/01 12:12:35;;;;;;;2.10;1.30;;;23.80;68.90;;;;;;7420463;19;20424;-83
2022/07/01 12:15:15;;;;;;;1.77;0.80;;;23.80;67.90;;;;;;7403567;19;20960;-82
2022/07/01 12:17:47;;;;;;;2.30;0.90;;;24.90;61.50;;;;;;7394288;19;20436;-81
2022/07/01 12:20:17;;;;;;;2.93;1.20;;;25.60;58.80;;;;;;7374108;19;20783;-81
2022/07/01 12:22:47;;;;;;;1.30;0.80;;;26.20;57.30;;;;;;7372742;19;20426;-83
2022/07/01 12:25:18;;;;;;;1.17;0.80;;;26.20;57.20;;;;;;7381208;19;20748;-82
2022/07/01 12:27:47;;;;;;;1.30;0.83;;;26.40;54.50;;;;;;7371886;19;20432;-81
2022/07/01 12:30:32;;;;;;;2.57;0.90;;;27.20;52.40;;;;;;7374540;19;22199;-82
2022/07/01 12:33:14;;;;;;;1.87;0.90;;;26.70;51.30;;;;;;7377370;19;20435;-80
2022/07/01 12:35:43;;;;;;;1.33;0.87;;;26.70;52.50;;;;;;7373890;19;20540;-81
2022/07/01 12:38:18;;;;;;;1.57;1.10;;;25.50;53.60;;;;;;7375406;19;20409;-81
2022/07/01 12:40:48;;;;;;;2.33;0.97;;;24.70;55.60;;;;;;7370071;19;20399;-81
2022/07/01 12:43:28;;;;;;;2.23;0.80;;;24.50;57.50;;;;;;7374249;19;20416;-82
2022/07/01 12:45:59;;;;;;;1.10;1.00;;;24.10;59.20;;;;;;7375134;19;20428;-81
2022/07/01 12:48:32;;;;;;;1.70;1.00;;;23.30;65.20;;;;;;7372974;19;20435;-81
2022/07/01 12:51:01;;;;;;;4.20;1.40;;;22.90;69.00;;;;;;7371508;19;20415;-81
2022/07/01 12:53:31;;;;;;;1.30;1.20;;;22.60;71.00;;;;;;7372162;19;20400;-81
2022/07/01 12:56:03;;;;;;;1.67;1.40;;;22.20;72.20;;;;;;7373320;19;20400;-81
2022/07/01 12:58:32;;;;;;;2.30;1.40;;;21.90;73.20;;;;;;7362089;19;21326;-81
2022/07/01 13:01:03;;;;;;;4.80;1.50;;;21.80;75.50;;;;;;7371936;19;20425;-80
2022/07/01 13:03:36;;;;;;;2.20;1.73;;;21.50;79.20;;;;;;7373080;19;20438;-81
2022/07/01 13:06:08;;;;;;;4.70;1.50;;;21.30;82.70;;;;;;7373322;19;20418;-81
2022/07/01 13:08:38;;;;;;;3.27;2.37;;;21.30;85.30;;;;;;7371254;19;20424;-82
2022/07/01 13:11:08;;;;;;;3.33;1.80;;;21.40;85.70;;;;;;7374706;19;20443;-80
2022/07/01 13:13:37;;;;;;;3.90;1.73;;;21.30;88.30;;;;;;7370244;19;20586;-80
2022/07/01 13:16:08;;;;;;;3.73;1.30;;;21.30;88.10;;;;;;7373217;19;20437;-82
2022/07/01 13:18:40;;;;;;;1.63;1.30;;;21.30;89.10;;;;;;7326757;19;20451;-81
2022/07/01 13:21:10;;;;;;;1.30;1.20;;;21.00;89.10;;;;;;7363595;19;20423;-83
2022/07/01 13:23:40;;;;;;;2.47;1.67;;;21.00;90.90;;;;;;7362895;19;20435;-80
2022/07/01 13:26:09;;;;;;;2.87;1.70;;;21.00;90.00;;;;;;7370567;19;20415;-82